sensor_id;sensor_type;location;lat;lon;timestamp;noise_LAeq;noise_LA_min;noise_LA_max;noise_LA01;noise_LA95
4048;Laerm;2038;51.728;6.674;2022-07-10T00:00:43;48.48;35.36;65.79;;
4048;Laerm;2038;51.728;6.674;2022-07-10T00:03:09;39.11;32.35;43.19;;
4048;Laerm;2038;51.728;6.674;2022-07-10T00:05:35;46.09;36.20;62.25;;
4048;Laerm;2038;51.728;6.674;2022-07-10T00:08:02;44.09;35.66;58.86;;
4048;Laerm;2038;51.728;6.674;2022-07-10T00:10:28;39.97;34.69;51.77;;
4048;Laerm;2038;51.728;6.674;2022-07-10T00:12:56;48.74;34.69;66.84;;
4048;Laerm;2038;51.728;6.674;2022-07-10T00:15:22;38.94;34.31;42.09;;
4048;Laerm;2038;51.728;6.674;2022-07-10T00:17:48;39.77;35.36;45.27;;
4048;Laerm;2038;51.728;6.674;2022-07-10T00:20:16;39.85;34.31;45.27;;
4048;Laerm;2038;51.728;6.674;2022-07-10T00:22:42;47.90;35.04;66.57;;
4048;Laerm;2038;51.728;6.674;2022-07-10T00:25:13;40.31;35.31;44.65;;
4048;Laerm;2038;51.728;6.674;2022-07-10T00:27:41;39.40;35.01;43.14;;
4048;Laerm;2038;51.728;6.674;2022-07-10T00:30:09;49.03;35.36;65.21;;
4048;Laerm;2038;51.728;6.674;2022-07-10T00:32:36;39.11;34.69;43.34;;
4048;Laerm;2038;51.728;6.674;2022-07-10T00:35:04;46.92;35.66;63.30;;
4048;Laerm;2038;51.728;6.674;2022-07-10T00:37:30;38.97;33.90;42.03;;
4048;Laerm;2038;51.728;6.674;2022-07-10T00:39:56;45.11;35.04;62.07;;
4048;Laerm;2038;51.728;6.674;2022-07-10T00:42:22;45.37;34.31;61.27;;
4048;Laerm;2038;51.728;6.674;2022-07-10T00:44:48;44.44;34.31;60.83;;
4048;Laerm;2038;51.728;6.674;2022-07-10T00:47:14;46.56;34.31;65.68;;
4048;Laerm;2038;51.728;6.674;2022-07-10T00:49:43;38.42;34.31;41.14;;
4048;Laerm;2038;51.728;6.674;2022-07-10T00:52:13;39.23;33.90;43.44;;
4048;Laerm;2038;51.728;6.674;2022-07-10T00:54:45;48.95;33.44;66.83;;
4048;Laerm;2038;51.728;6.674;2022-07-10T00:57:14;38.68;33.90;41.46;;
4048;Laerm;2038;51.728;6.674;2022-07-10T00:59:44;38.74;33.90;41.89;;
4048;Laerm;2038;51.728;6.674;2022-07-10T01:02:13;46.29;34.31;62.96;;
4048;Laerm;2038;51.728;6.674;2022-07-10T01:04:39;46.05;35.04;60.70;;
4048;Laerm;2038;51.728;6.674;2022-07-10T01:07:05;38.63;32.35;41.46;;
4048;Laerm;2038;51.728;6.674;2022-07-10T01:09:33;50.37;34.69;69.01;;
4048;Laerm;2038;51.728;6.674;2022-07-10T01:12:03;38.88;34.69;42.93;;
4048;Laerm;2038;51.728;6.674;2022-07-10T01:14:30;47.22;34.69;62.56;;
4048;Laerm;2038;51.728;6.674;2022-07-10T01:16:58;38.65;33.55;41.22;;
4048;Laerm;2038;51.728;6.674;2022-07-10T01:19:24;38.81;34.69;42.35;;
4048;Laerm;2038;51.728;6.674;2022-07-10T01:21:50;38.77;34.31;43.58;;
4048;Laerm;2038;51.728;6.674;2022-07-10T01:24:16;47.84;33.90;63.77;;
4048;Laerm;2038;51.728;6.674;2022-07-10T01:26:43;47.48;33.90;63.44;;
4048;Laerm;2038;51.728;6.674;2022-07-10T01:29:10;38.61;33.44;41.61;;
4048;Laerm;2038;51.728;6.674;2022-07-10T01:31:39;38.40;33.44;41.14;;
4048;Laerm;2038;51.728;6.674;2022-07-10T01:34:08;50.39;34.31;66.62;;
4048;Laerm;2038;51.728;6.674;2022-07-10T01:36:36;46.89;34.69;65.40;;
4048;Laerm;2038;51.728;6.674;2022-07-10T01:39:06;38.53;34.31;41.38;;
4048;Laerm;2038;51.728;6.674;2022-07-10T01:41:32;38.48;33.90;41.30;;
4048;Laerm;2038;51.728;6.674;2022-07-10T01:43:59;38.33;34.31;40.98;;
4048;Laerm;2038;51.728;6.674;2022-07-10T01:46:25;38.36;33.90;40.98;;
4048;Laerm;2038;51.728;6.674;2022-07-10T01:48:52;38.38;32.93;41.38;;
4048;Laerm;2038;51.728;6.674;2022-07-10T01:51:20;38.84;32.93;44.51;;
4048;Laerm;2038;51.728;6.674;2022-07-10T01:53:46;38.64;33.44;42.03;;
4048;Laerm;2038;51.728;6.674;2022-07-10T01:56:15;38.99;34.31;44.31;;
4048;Laerm;2038;51.728;6.674;2022-07-10T01:58:41;47.11;35.04;60.96;;
4048;Laerm;2038;51.728;6.674;2022-07-10T02:01:09;38.53;33.90;41.22;;
4048;Laerm;2038;51.728;6.674;2022-07-10T02:03:35;38.77;34.69;44.87;;
4048;Laerm;2038;51.728;6.674;2022-07-10T02:06:19;48.75;33.90;63.96;;
4048;Laerm;2038;51.728;6.674;2022-07-10T02:08:45;44.13;33.90;62.38;;
4048;Laerm;2038;51.728;6.674;2022-07-10T02:11:11;44.69;33.90;62.33;;
4048;Laerm;2038;51.728;6.674;2022-07-10T02:13:38;38.72;32.93;41.46;;
4048;Laerm;2038;51.728;6.674;2022-07-10T02:16:05;38.54;33.90;41.22;;
4048;Laerm;2038;51.728;6.674;2022-07-10T02:18:31;49.30;33.44;65.40;;
4048;Laerm;2038;51.728;6.674;2022-07-10T02:20:58;50.22;33.44;68.75;;
4048;Laerm;2038;51.728;6.674;2022-07-10T02:23:23;39.13;34.69;42.76;;
4048;Laerm;2038;51.728;6.674;2022-07-10T02:25:52;49.99;33.90;67.09;;
4048;Laerm;2038;51.728;6.674;2022-07-10T02:28:20;38.57;32.93;41.22;;
4048;Laerm;2038;51.728;6.674;2022-07-10T02:30:50;38.63;34.31;41.22;;
4048;Laerm;2038;51.728;6.674;2022-07-10T02:33:17;45.97;35.36;63.18;;
4048;Laerm;2038;51.728;6.674;2022-07-10T02:35:43;42.13;33.90;58.27;;
4048;Laerm;2038;51.728;6.674;2022-07-10T02:38:09;39.13;34.31;46.15;;
4048;Laerm;2038;51.728;6.674;2022-07-10T02:40:35;46.50;35.94;63.56;;
4048;Laerm;2038;51.728;6.674;2022-07-10T02:43:01;39.00;34.69;51.95;;
4048;Laerm;2038;51.728;6.674;2022-07-10T02:45:27;44.79;34.69;60.60;;
4048;Laerm;2038;51.728;6.674;2022-07-10T02:47:53;40.51;34.31;51.37;;
4048;Laerm;2038;51.728;6.674;2022-07-10T02:50:18;40.19;33.44;52.34;;
4048;Laerm;2038;51.728;6.674;2022-07-10T02:52:44;40.24;33.90;55.65;;
4048;Laerm;2038;51.728;6.674;2022-07-10T02:55:10;40.11;34.69;47.74;;
4048;Laerm;2038;51.728;6.674;2022-07-10T02:57:36;48.87;35.36;61.63;;
4048;Laerm;2038;51.728;6.674;2022-07-10T03:00:03;45.26;33.44;62.62;;
4048;Laerm;2038;51.728;6.674;2022-07-10T03:02:30;48.05;35.04;67.65;;
4048;Laerm;2038;51.728;6.674;2022-07-10T03:04:56;38.62;33.90;41.30;;
4048;Laerm;2038;51.728;6.674;2022-07-10T03:07:22;42.48;33.90;60.43;;
4048;Laerm;2038;51.728;6.674;2022-07-10T03:09:48;40.13;35.04;49.27;;
4048;Laerm;2038;51.728;6.674;2022-07-10T03:12:15;48.49;35.94;64.20;;
4048;Laerm;2038;51.728;6.674;2022-07-10T03:14:41;46.71;35.66;61.89;;
4048;Laerm;2038;51.728;6.674;2022-07-10T03:17:07;40.23;34.69;53.50;;
4048;Laerm;2038;51.728;6.674;2022-07-10T03:19:33;39.03;35.04;51.53;;
4048;Laerm;2038;51.728;6.674;2022-07-10T03:22:00;39.00;35.04;53.34;;
4048;Laerm;2038;51.728;6.674;2022-07-10T03:24:26;39.80;35.04;50.40;;
4048;Laerm;2038;51.728;6.674;2022-07-10T03:26:52;46.19;35.04;62.86;;
4048;Laerm;2038;51.728;6.674;2022-07-10T03:29:18;43.67;35.66;59.04;;
4048;Laerm;2038;51.728;6.674;2022-07-10T03:31:44;39.81;34.69;52.09;;
4048;Laerm;2038;51.728;6.674;2022-07-10T03:34:10;43.42;35.94;61.37;;
4048;Laerm;2038;51.728;6.674;2022-07-10T03:36:36;40.04;35.04;51.26;;
4048;Laerm;2038;51.728;6.674;2022-07-10T03:39:03;39.47;34.69;47.88;;
4048;Laerm;2038;51.728;6.674;2022-07-10T03:41:30;40.68;34.69;60.84;;
4048;Laerm;2038;51.728;6.674;2022-07-10T03:43:56;39.42;34.31;47.76;;
4048;Laerm;2038;51.728;6.674;2022-07-10T03:46:22;45.59;33.44;61.24;;
4048;Laerm;2038;51.728;6.674;2022-07-10T03:48:48;48.89;35.66;67.09;;
4048;Laerm;2038;51.728;6.674;2022-07-10T03:51:13;44.32;34.69;60.25;;
4048;Laerm;2038;51.728;6.674;2022-07-10T03:53:40;41.49;34.31;58.89;;
4048;Laerm;2038;51.728;6.674;2022-07-10T03:56:06;48.27;34.69;62.74;;
4048;Laerm;2038;51.728;6.674;2022-07-10T03:58:32;48.26;35.94;66.11;;
4048;Laerm;2038;51.728;6.674;2022-07-10T04:00:58;40.61;36.20;50.17;;
4048;Laerm;2038;51.728;6.674;2022-07-10T04:03:24;39.74;35.04;54.33;;
4048;Laerm;2038;51.728;6.674;2022-07-10T04:05:50;39.63;35.36;51.55;;
4048;Laerm;2038;51.728;6.674;2022-07-10T04:08:15;49.03;36.45;64.22;;
4048;Laerm;2038;51.728;6.674;2022-07-10T04:10:41;48.98;36.20;65.26;;
4048;Laerm;2038;51.728;6.674;2022-07-10T04:13:07;47.33;36.45;61.27;;
4048;Laerm;2038;51.728;6.674;2022-07-10T04:15:33;42.30;36.10;57.65;;
4048;Laerm;2038;51.728;6.674;2022-07-10T04:17:59;48.61;36.69;65.89;;
4048;Laerm;2038;51.728;6.674;2022-07-10T04:20:25;39.93;35.66;51.28;;
4048;Laerm;2038;51.728;6.674;2022-07-10T04:22:51;42.95;35.04;59.14;;
4048;Laerm;2038;51.728;6.674;2022-07-10T04:25:19;43.36;35.04;59.73;;
4048;Laerm;2038;51.728;6.674;2022-07-10T04:27:45;45.09;35.36;61.73;;
4048;Laerm;2038;51.728;6.674;2022-07-10T04:30:11;40.31;33.44;52.24;;
4048;Laerm;2038;51.728;6.674;2022-07-10T04:32:37;47.60;35.94;65.19;;
4048;Laerm;2038;51.728;6.674;2022-07-10T04:35:04;40.85;36.20;58.41;;
4048;Laerm;2038;51.728;6.674;2022-07-10T04:37:30;48.50;36.45;67.34;;
4048;Laerm;2038;51.728;6.674;2022-07-10T04:39:57;44.89;34.31;59.94;;
4048;Laerm;2038;51.728;6.674;2022-07-10T04:42:24;42.97;35.04;55.06;;
4048;Laerm;2038;51.728;6.674;2022-07-10T04:44:52;42.21;35.66;58.18;;
4048;Laerm;2038;51.728;6.674;2022-07-10T04:47:18;45.44;35.94;61.21;;
4048;Laerm;2038;51.728;6.674;2022-07-10T04:49:44;49.88;36.20;65.39;;
4048;Laerm;2038;51.728;6.674;2022-07-10T04:52:10;47.69;35.94;61.47;;
4048;Laerm;2038;51.728;6.674;2022-07-10T04:54:36;40.92;36.20;54.23;;
4048;Laerm;2038;51.728;6.674;2022-07-10T04:57:03;61.81;26.91;96.58;;
4048;Laerm;2038;51.728;6.674;2022-07-10T04:59:29;78.14;32.35;98.29;;
4048;Laerm;2038;51.728;6.674;2022-07-10T05:01:55;66.93;35.66;98.28;;
4048;Laerm;2038;51.728;6.674;2022-07-10T05:04:20;39.94;35.94;43.39;;
4048;Laerm;2038;51.728;6.674;2022-07-10T05:06:46;41.57;35.94;56.73;;
4048;Laerm;2038;51.728;6.674;2022-07-10T05:09:12;43.16;35.36;58.50;;
4048;Laerm;2038;51.728;6.674;2022-07-10T05:11:38;46.91;33.90;70.41;;
4048;Laerm;2038;51.728;6.674;2022-07-10T05:14:04;46.80;35.94;63.41;;
4048;Laerm;2038;51.728;6.674;2022-07-10T05:16:30;40.71;36.20;50.95;;
4048;Laerm;2038;51.728;6.674;2022-07-10T05:18:55;47.84;35.94;67.12;;
4048;Laerm;2038;51.728;6.674;2022-07-10T05:21:21;49.24;35.94;63.69;;
4048;Laerm;2038;51.728;6.674;2022-07-10T05:23:47;40.86;35.36;58.16;;
4048;Laerm;2038;51.728;6.674;2022-07-10T05:26:13;49.25;36.45;67.29;;
4048;Laerm;2038;51.728;6.674;2022-07-10T05:28:39;48.93;35.66;62.36;;
4048;Laerm;2038;51.728;6.674;2022-07-10T05:31:05;42.26;35.66;59.76;;
4048;Laerm;2038;51.728;6.674;2022-07-10T05:33:31;44.47;35.04;62.96;;
4048;Laerm;2038;51.728;6.674;2022-07-10T05:35:58;40.77;35.36;56.47;;
4048;Laerm;2038;51.728;6.674;2022-07-10T05:38:24;48.64;36.20;67.13;;
4048;Laerm;2038;51.728;6.674;2022-07-10T05:40:49;48.13;37.12;62.29;;
4048;Laerm;2038;51.728;6.674;2022-07-10T05:43:16;45.83;36.20;60.43;;
4048;Laerm;2038;51.728;6.674;2022-07-10T05:45:42;42.52;36.45;51.75;;
4048;Laerm;2038;51.728;6.674;2022-07-10T05:48:07;47.50;36.45;62.73;;
4048;Laerm;2038;51.728;6.674;2022-07-10T05:50:33;48.53;34.69;65.98;;
4048;Laerm;2038;51.728;6.674;2022-07-10T05:52:59;46.06;34.31;60.00;;
4048;Laerm;2038;51.728;6.674;2022-07-10T05:55:25;48.08;35.04;65.23;;
4048;Laerm;2038;51.728;6.674;2022-07-10T05:57:51;50.33;35.94;66.70;;
4048;Laerm;2038;51.728;6.674;2022-07-10T06:00:17;49.78;35.94;66.02;;
4048;Laerm;2038;51.728;6.674;2022-07-10T06:02:43;48.09;36.91;61.66;;
4048;Laerm;2038;51.728;6.674;2022-07-10T06:05:09;48.45;36.45;64.97;;
4048;Laerm;2038;51.728;6.674;2022-07-10T06:07:35;40.24;36.45;52.05;;
4048;Laerm;2038;51.728;6.674;2022-07-10T06:10:06;47.48;36.20;66.51;;
4048;Laerm;2038;51.728;6.674;2022-07-10T06:12:32;39.61;35.36;50.18;;
4048;Laerm;2038;51.728;6.674;2022-07-10T06:14:58;50.93;36.91;65.13;;
4048;Laerm;2038;51.728;6.674;2022-07-10T06:17:24;40.20;36.20;55.56;;
4048;Laerm;2038;51.728;6.674;2022-07-10T06:19:51;41.73;37.32;54.33;;
4048;Laerm;2038;51.728;6.674;2022-07-10T06:22:17;49.96;35.94;69.23;;
4048;Laerm;2038;51.728;6.674;2022-07-10T06:25:06;50.94;35.66;68.69;;
4048;Laerm;2038;51.728;6.674;2022-07-10T06:27:33;47.78;36.91;62.93;;
4048;Laerm;2038;51.728;6.674;2022-07-10T06:30:01;47.87;36.20;63.08;;
4048;Laerm;2038;51.728;6.674;2022-07-10T06:32:28;43.47;36.69;59.69;;
4048;Laerm;2038;51.728;6.674;2022-07-10T06:34:55;51.95;38.95;66.86;;
4048;Laerm;2038;51.728;6.674;2022-07-10T06:37:22;42.09;36.45;49.28;;
4048;Laerm;2038;51.728;6.674;2022-07-10T06:39:49;50.05;36.10;61.95;;
4048;Laerm;2038;51.728;6.674;2022-07-10T06:42:17;50.35;37.32;63.81;;
4048;Laerm;2038;51.728;6.674;2022-07-10T06:44:44;46.42;36.69;60.70;;
4048;Laerm;2038;51.728;6.674;2022-07-10T06:47:17;48.62;36.91;62.72;;
4048;Laerm;2038;51.728;6.674;2022-07-10T06:50:07;43.48;35.94;55.60;;
4048;Laerm;2038;51.728;6.674;2022-07-10T06:52:35;45.53;35.94;57.95;;
4048;Laerm;2038;51.728;6.674;2022-07-10T06:55:03;46.56;35.66;60.45;;
4048;Laerm;2038;51.728;6.674;2022-07-10T06:57:30;52.59;36.45;66.73;;
4048;Laerm;2038;51.728;6.674;2022-07-10T06:59:56;47.67;35.94;68.11;;
4048;Laerm;2038;51.728;6.674;2022-07-10T07:02:22;46.42;36.45;60.57;;
4048;Laerm;2038;51.728;6.674;2022-07-10T07:04:48;51.26;38.81;65.63;;
4048;Laerm;2038;51.728;6.674;2022-07-10T07:07:15;48.35;37.12;64.18;;
4048;Laerm;2038;51.728;6.674;2022-07-10T07:09:41;40.45;36.91;46.25;;
4048;Laerm;2038;51.728;6.674;2022-07-10T07:12:08;50.25;36.69;67.27;;
4048;Laerm;2038;51.728;6.674;2022-07-10T07:14:35;52.44;38.05;65.93;;
4048;Laerm;2038;51.728;6.674;2022-07-10T07:17:02;49.23;36.20;66.03;;
4048;Laerm;2038;51.728;6.674;2022-07-10T07:19:33;41.34;35.94;56.37;;
4048;Laerm;2038;51.728;6.674;2022-07-10T07:22:19;50.20;36.69;64.08;;
4048;Laerm;2038;51.728;6.674;2022-07-10T07:25:05;51.55;36.45;67.80;;
4048;Laerm;2038;51.728;6.674;2022-07-10T07:27:33;50.63;37.70;65.11;;
4048;Laerm;2038;51.728;6.674;2022-07-10T07:30:13;50.09;36.45;62.22;;
4048;Laerm;2038;51.728;6.674;2022-07-10T07:32:45;46.75;36.20;57.65;;
4048;Laerm;2038;51.728;6.674;2022-07-10T07:35:15;47.83;36.20;60.77;;
4048;Laerm;2038;51.728;6.674;2022-07-10T07:37:46;54.30;35.36;70.31;;
4048;Laerm;2038;51.728;6.674;2022-07-10T07:40:21;49.23;36.69;65.07;;
4048;Laerm;2038;51.728;6.674;2022-07-10T07:42:50;47.02;35.36;65.33;;
4048;Laerm;2038;51.728;6.674;2022-07-10T07:45:16;46.53;35.94;59.54;;
4048;Laerm;2038;51.728;6.674;2022-07-10T07:48:03;50.39;36.69;62.84;;
4048;Laerm;2038;51.728;6.674;2022-07-10T07:50:36;48.93;35.94;65.37;;
4048;Laerm;2038;51.728;6.674;2022-07-10T07:53:04;50.00;35.36;65.37;;
4048;Laerm;2038;51.728;6.674;2022-07-10T07:55:33;51.03;36.91;64.44;;
4048;Laerm;2038;51.728;6.674;2022-07-10T07:58:01;47.69;36.20;63.12;;
4048;Laerm;2038;51.728;6.674;2022-07-10T08:00:28;48.49;35.04;62.15;;
4048;Laerm;2038;51.728;6.674;2022-07-10T08:02:57;42.35;35.04;57.08;;
4048;Laerm;2038;51.728;6.674;2022-07-10T08:05:24;49.48;35.66;64.24;;
4048;Laerm;2038;51.728;6.674;2022-07-10T08:07:57;51.25;35.36;64.81;;
4048;Laerm;2038;51.728;6.674;2022-07-10T08:10:26;50.54;34.69;62.95;;
4048;Laerm;2038;51.728;6.674;2022-07-10T08:12:53;44.83;35.66;58.14;;
4048;Laerm;2038;51.728;6.674;2022-07-10T08:15:21;49.01;35.94;65.51;;
4048;Laerm;2038;51.728;6.674;2022-07-10T08:17:56;50.37;37.12;63.93;;
4048;Laerm;2038;51.728;6.674;2022-07-10T08:20:25;52.30;37.12;66.72;;
4048;Laerm;2038;51.728;6.674;2022-07-10T08:22:52;51.81;37.12;63.90;;
4048;Laerm;2038;51.728;6.674;2022-07-10T08:25:20;52.54;35.66;68.26;;
4048;Laerm;2038;51.728;6.674;2022-07-10T08:27:46;62.75;36.91;83.62;;
4048;Laerm;2038;51.728;6.674;2022-07-10T08:30:13;49.72;37.32;60.93;;
4048;Laerm;2038;51.728;6.674;2022-07-10T08:32:40;50.43;36.56;63.41;;
4048;Laerm;2038;51.728;6.674;2022-07-10T08:35:08;49.78;35.66;62.91;;
4048;Laerm;2038;51.728;6.674;2022-07-10T08:37:43;51.23;36.45;64.23;;
4048;Laerm;2038;51.728;6.674;2022-07-10T08:40:13;50.64;36.45;63.79;;
4048;Laerm;2038;51.728;6.674;2022-07-10T08:42:44;51.50;37.32;64.34;;
4048;Laerm;2038;51.728;6.674;2022-07-10T08:45:12;50.03;36.69;62.64;;
4048;Laerm;2038;51.728;6.674;2022-07-10T08:47:40;51.53;38.21;62.01;;
4048;Laerm;2038;51.728;6.674;2022-07-10T08:50:24;51.32;36.91;65.89;;
4048;Laerm;2038;51.728;6.674;2022-07-10T08:53:20;55.26;38.52;71.71;;
4048;Laerm;2038;51.728;6.674;2022-07-10T08:55:49;48.42;37.52;64.76;;
4048;Laerm;2038;51.728;6.674;2022-07-10T08:58:18;55.82;37.88;69.17;;
4048;Laerm;2038;51.728;6.674;2022-07-10T09:00:43;52.71;39.57;64.30;;
4048;Laerm;2038;51.728;6.674;2022-07-10T09:03:09;52.88;39.35;64.31;;
4048;Laerm;2038;51.728;6.674;2022-07-10T09:05:35;48.32;36.69;61.45;;
4048;Laerm;2038;51.728;6.674;2022-07-10T09:08:01;47.84;36.91;62.87;;
4048;Laerm;2038;51.728;6.674;2022-07-10T09:10:28;52.62;36.69;66.45;;
4048;Laerm;2038;51.728;6.674;2022-07-10T09:13:01;51.91;36.20;64.69;;
4048;Laerm;2038;51.728;6.674;2022-07-10T09:15:32;55.65;37.32;70.84;;
4048;Laerm;2038;51.728;6.674;2022-07-10T09:18:03;52.24;38.21;66.80;;
4048;Laerm;2038;51.728;6.674;2022-07-10T09:20:37;42.23;36.45;66.48;;
4048;Laerm;2038;51.728;6.674;2022-07-10T09:23:21;48.23;36.91;62.07;;
4048;Laerm;2038;51.728;6.674;2022-07-10T09:25:52;52.80;36.45;65.56;;
4048;Laerm;2038;51.728;6.674;2022-07-10T09:28:21;49.95;37.12;61.21;;
4048;Laerm;2038;51.728;6.674;2022-07-10T09:30:48;52.46;37.12;64.73;;
4048;Laerm;2038;51.728;6.674;2022-07-10T09:33:24;52.01;37.52;63.99;;
4048;Laerm;2038;51.728;6.674;2022-07-10T09:36:11;50.29;37.32;63.30;;
4048;Laerm;2038;51.728;6.674;2022-07-10T09:41:28;47.27;37.32;59.85;;
4048;Laerm;2038;51.728;6.674;2022-07-10T09:44:05;50.35;37.70;64.56;;
4048;Laerm;2038;51.728;6.674;2022-07-10T09:46:39;51.02;38.21;62.92;;
4048;Laerm;2038;51.728;6.674;2022-07-10T09:49:13;52.63;38.21;64.82;;
4048;Laerm;2038;51.728;6.674;2022-07-10T09:51:45;49.39;37.88;61.56;;
4048;Laerm;2038;51.728;6.674;2022-07-10T09:54:12;49.66;38.52;65.02;;
4048;Laerm;2038;51.728;6.674;2022-07-10T09:56:51;57.54;40.89;71.33;;
4048;Laerm;2038;51.728;6.674;2022-07-10T09:59:21;52.94;41.14;66.88;;
4048;Laerm;2038;51.728;6.674;2022-07-10T10:01:52;56.55;43.09;70.75;;
4048;Laerm;2038;51.728;6.674;2022-07-10T10:04:21;56.69;40.53;71.42;;
4048;Laerm;2038;51.728;6.674;2022-07-10T10:06:57;53.75;39.68;67.35;;
4048;Laerm;2038;51.728;6.674;2022-07-10T10:09:41;55.07;38.21;66.40;;
4048;Laerm;2038;51.728;6.674;2022-07-10T10:12:30;52.33;36.91;67.32;;
4048;Laerm;2038;51.728;6.674;2022-07-10T10:15:00;45.74;36.91;62.94;;
4048;Laerm;2038;51.728;6.674;2022-07-10T10:17:28;53.85;38.52;67.64;;
4048;Laerm;2038;51.728;6.674;2022-07-10T10:19:56;52.29;37.52;66.51;;
4048;Laerm;2038;51.728;6.674;2022-07-10T10:22:42;51.06;37.52;66.59;;
4048;Laerm;2038;51.728;6.674;2022-07-10T10:25:10;51.95;37.52;66.19;;
4048;Laerm;2038;51.728;6.674;2022-07-10T10:27:37;52.29;38.21;64.22;;
4048;Laerm;2038;51.728;6.674;2022-07-10T10:30:04;50.31;38.02;65.34;;
4048;Laerm;2038;51.728;6.674;2022-07-10T10:32:30;55.32;38.05;66.00;;
4048;Laerm;2038;51.728;6.674;2022-07-10T10:34:58;50.17;36.77;64.29;;
4048;Laerm;2038;51.728;6.674;2022-07-10T10:40:10;54.21;40.89;69.18;;
4048;Laerm;2038;51.728;6.674;2022-07-10T10:42:41;52.45;39.46;65.21;;
4048;Laerm;2038;51.728;6.674;2022-07-10T10:45:33;52.97;39.08;65.59;;
4048;Laerm;2038;51.728;6.674;2022-07-10T10:53:13;54.70;37.88;68.47;;
4048;Laerm;2038;51.728;6.674;2022-07-10T10:55:40;51.80;39.34;63.36;;
4048;Laerm;2038;51.728;6.674;2022-07-10T10:58:17;53.94;39.08;65.68;;
4048;Laerm;2038;51.728;6.674;2022-07-10T11:00:45;49.57;37.88;63.51;;
4048;Laerm;2038;51.728;6.674;2022-07-10T11:03:20;53.87;39.46;65.35;;
4048;Laerm;2038;51.728;6.674;2022-07-10T11:05:48;52.20;37.88;68.83;;
4048;Laerm;2038;51.728;6.674;2022-07-10T11:08:37;52.40;39.58;65.68;;
4048;Laerm;2038;51.728;6.674;2022-07-10T11:13:58;51.82;39.21;67.27;;
4048;Laerm;2038;51.728;6.674;2022-07-10T11:16:25;51.59;38.52;64.25;;
4048;Laerm;2038;51.728;6.674;2022-07-10T11:18:55;50.79;38.67;64.23;;
4048;Laerm;2038;51.728;6.674;2022-07-10T11:21:25;50.78;39.21;64.76;;
4048;Laerm;2038;51.728;6.674;2022-07-10T11:24:10;52.13;39.92;66.79;;
4048;Laerm;2038;51.728;6.674;2022-07-10T11:26:59;54.52;37.88;70.03;;
4048;Laerm;2038;51.728;6.674;2022-07-10T11:29:27;51.76;38.05;66.10;;
4048;Laerm;2038;51.728;6.674;2022-07-10T11:31:54;52.02;37.32;62.91;;
4048;Laerm;2038;51.728;6.674;2022-07-10T11:34:22;55.24;40.03;66.61;;
4048;Laerm;2038;51.728;6.674;2022-07-10T11:36:48;54.01;38.67;66.85;;
4048;Laerm;2038;51.728;6.674;2022-07-10T11:39:14;51.97;38.67;65.31;;
4048;Laerm;2038;51.728;6.674;2022-07-10T11:41:45;53.29;38.21;65.99;;
4048;Laerm;2038;51.728;6.674;2022-07-10T11:44:18;52.48;38.81;65.56;;
4048;Laerm;2038;51.728;6.674;2022-07-10T11:46:48;55.96;39.46;67.52;;
4048;Laerm;2038;51.728;6.674;2022-07-10T11:49:16;53.16;39.46;69.26;;
4048;Laerm;2038;51.728;6.674;2022-07-10T11:51:44;55.99;40.33;70.27;;
4048;Laerm;2038;51.728;6.674;2022-07-10T11:54:15;52.61;39.58;65.63;;
4048;Laerm;2038;51.728;6.674;2022-07-10T11:56:50;52.85;40.89;65.11;;
4048;Laerm;2038;51.728;6.674;2022-07-10T11:59:24;56.46;42.35;67.54;;
4048;Laerm;2038;51.728;6.674;2022-07-10T12:01:54;52.21;38.05;65.41;;
4048;Laerm;2038;51.728;6.674;2022-07-10T12:04:23;52.71;40.33;63.52;;
4048;Laerm;2038;51.728;6.674;2022-07-10T12:06:53;54.26;40.13;67.77;;
4048;Laerm;2038;51.728;6.674;2022-07-10T12:09:23;52.71;40.89;64.46;;
4048;Laerm;2038;51.728;6.674;2022-07-10T12:12:02;49.77;39.34;62.05;;
4048;Laerm;2038;51.728;6.674;2022-07-10T12:14:30;52.96;39.70;65.23;;
4048;Laerm;2038;51.728;6.674;2022-07-10T12:16:58;53.91;40.80;67.26;;
4048;Laerm;2038;51.728;6.674;2022-07-10T12:19:38;52.44;41.30;65.08;;
4048;Laerm;2038;51.728;6.674;2022-07-10T12:22:06;54.22;39.92;69.11;;
4048;Laerm;2038;51.728;6.674;2022-07-10T12:24:33;51.57;39.81;64.18;;
4048;Laerm;2038;51.728;6.674;2022-07-10T12:27:00;50.80;39.81;63.96;;
4048;Laerm;2038;51.728;6.674;2022-07-10T12:29:28;53.32;38.52;65.06;;
4048;Laerm;2038;51.728;6.674;2022-07-10T12:32:00;51.89;39.46;64.89;;
4048;Laerm;2038;51.728;6.674;2022-07-10T12:34:42;48.77;37.52;68.43;;
4048;Laerm;2038;51.728;6.674;2022-07-10T12:37:11;49.54;38.37;63.95;;
4048;Laerm;2038;51.728;6.674;2022-07-10T12:39:46;50.09;39.46;63.17;;
4048;Laerm;2038;51.728;6.674;2022-07-10T12:42:22;53.70;42.13;63.42;;
4048;Laerm;2038;51.728;6.674;2022-07-10T12:44:50;53.79;41.75;68.25;;
4048;Laerm;2038;51.728;6.674;2022-07-10T12:47:18;53.22;43.58;62.29;;
4048;Laerm;2038;51.728;6.674;2022-07-10T12:50:05;58.95;41.89;71.79;;
4048;Laerm;2038;51.728;6.674;2022-07-10T12:52:36;53.46;42.03;65.69;;
4048;Laerm;2038;51.728;6.674;2022-07-10T12:55:22;53.94;41.96;68.51;;
4048;Laerm;2038;51.728;6.674;2022-07-10T12:57:52;54.97;41.53;70.48;;
4048;Laerm;2038;51.728;6.674;2022-07-10T13:00:22;53.65;40.53;66.30;;
4048;Laerm;2038;51.728;6.674;2022-07-10T13:03:06;49.99;38.81;65.56;;
4048;Laerm;2038;51.728;6.674;2022-07-10T13:05:39;51.44;38.87;65.85;;
4048;Laerm;2038;51.728;6.674;2022-07-10T13:08:12;51.16;41.30;62.99;;
4048;Laerm;2038;51.728;6.674;2022-07-10T13:10:49;53.59;40.71;64.96;;
4048;Laerm;2038;51.728;6.674;2022-07-10T13:13:16;56.91;39.81;74.03;;
4048;Laerm;2038;51.728;6.674;2022-07-10T13:15:44;48.84;40.71;64.32;;
4048;Laerm;2038;51.728;6.674;2022-07-10T13:18:21;55.58;41.14;70.41;;
4048;Laerm;2038;51.728;6.674;2022-07-10T13:20:50;55.19;38.81;71.11;;
4048;Laerm;2038;51.728;6.674;2022-07-10T13:23:18;53.44;39.81;65.68;;
4048;Laerm;2038;51.728;6.674;2022-07-10T13:25:54;51.40;40.03;62.80;;
4048;Laerm;2038;51.728;6.674;2022-07-10T13:28:20;52.94;40.80;65.90;;
4048;Laerm;2038;51.728;6.674;2022-07-10T13:30:47;50.89;38.81;64.09;;
4048;Laerm;2038;51.728;6.674;2022-07-10T13:33:14;52.83;39.92;62.78;;
4048;Laerm;2038;51.728;6.674;2022-07-10T13:35:40;49.57;39.46;61.49;;
4048;Laerm;2038;51.728;6.674;2022-07-10T13:38:07;56.24;39.46;70.50;;
4048;Laerm;2038;51.728;6.674;2022-07-10T13:40:37;53.03;38.52;65.23;;
4048;Laerm;2038;51.728;6.674;2022-07-10T13:43:04;48.87;38.21;62.85;;
4048;Laerm;2038;51.728;6.674;2022-07-10T13:45:35;51.76;37.52;63.92;;
4048;Laerm;2038;51.728;6.674;2022-07-10T13:48:10;52.40;40.80;64.97;;
4048;Laerm;2038;51.728;6.674;2022-07-10T13:50:41;57.54;42.98;75.46;;
4048;Laerm;2038;51.728;6.674;2022-07-10T13:53:08;53.97;39.81;66.33;;
4048;Laerm;2038;51.728;6.674;2022-07-10T13:55:35;51.49;38.21;63.94;;
4048;Laerm;2038;51.728;6.674;2022-07-10T13:58:02;52.98;40.62;63.32;;
4048;Laerm;2038;51.728;6.674;2022-07-10T14:00:29;52.41;39.89;63.01;;
4048;Laerm;2038;51.728;6.674;2022-07-10T14:02:55;51.30;43.34;62.60;;
4048;Laerm;2038;51.728;6.674;2022-07-10T14:05:23;52.07;38.81;67.52;;
4048;Laerm;2038;51.728;6.674;2022-07-10T14:07:50;51.65;39.46;62.78;;
4048;Laerm;2038;51.728;6.674;2022-07-10T14:10:16;50.49;40.33;63.73;;
4048;Laerm;2038;51.728;6.674;2022-07-10T14:12:43;52.76;41.30;67.19;;
4048;Laerm;2038;51.728;6.674;2022-07-10T14:15:10;51.48;41.89;62.64;;
4048;Laerm;2038;51.728;6.674;2022-07-10T14:17:36;50.84;42.16;61.47;;
4048;Laerm;2038;51.728;6.674;2022-07-10T14:20:02;53.68;41.06;69.37;;
4048;Laerm;2038;51.728;6.674;2022-07-10T14:22:29;50.43;38.81;64.41;;
4048;Laerm;2038;51.728;6.674;2022-07-10T14:24:57;51.65;39.70;63.11;;
4048;Laerm;2038;51.728;6.674;2022-07-10T14:27:24;52.07;38.95;64.66;;
4048;Laerm;2038;51.728;6.674;2022-07-10T14:29:50;48.94;38.81;62.72;;
4048;Laerm;2038;51.728;6.674;2022-07-10T14:32:17;51.09;39.92;62.70;;